createdAt,value
2019-05-22T00:00:23.736Z,11.17
2019-05-22T00:02:54.940Z,6.70
2019-05-22T00:05:31.774Z,8.67
2019-05-22T00:08:05.227Z,9.37
2019-05-22T00:10:38.609Z,8.33
2019-05-22T00:13:14.162Z,9.70
2019-05-22T00:15:48.415Z,9.90
2019-05-22T00:18:19.614Z,8.10
2019-05-22T00:20:51.484Z,12.00
2019-05-22T00:23:22.603Z,8.58
2019-05-22T00:25:54.686Z,8.18
2019-05-22T00:28:27.043Z,9.10
2019-05-22T00:30:59.220Z,8.98
2019-05-22T00:33:31.340Z,9.97
2019-05-22T00:36:02.414Z,10.63
2019-05-22T00:38:34.088Z,9.10
2019-05-22T00:41:10.737Z,9.73
2019-05-22T00:43:44.624Z,10.00
2019-05-22T00:46:20.561Z,9.63
2019-05-22T00:48:54.506Z,8.83
2019-05-22T00:51:41.054Z,10.23
2019-05-22T00:54:22.025Z,9.70
2019-05-22T00:57:03.947Z,10.38
2019-05-22T00:59:37.852Z,10.83
2019-05-22T01:02:12.588Z,11.93
2019-05-22T01:04:46.734Z,9.18
2019-05-22T01:07:17.862Z,13.13
2019-05-22T01:09:52.207Z,9.63
2019-05-22T01:12:32.014Z,11.63
2019-05-22T01:15:08.371Z,11.10
2019-05-22T01:17:41.601Z,9.84
2019-05-22T01:20:16.606Z,9.20
2019-05-22T01:22:51.518Z,10.50
2019-05-22T01:25:22.863Z,8.00
2019-05-22T01:27:55.666Z,11.78
2019-05-22T01:30:34.981Z,7.23
2019-05-22T01:33:10.890Z,7.33
2019-05-22T01:35:49.453Z,8.17
2019-05-22T01:38:21.194Z,10.30
2019-05-22T01:40:57.679Z,9.13
2019-05-22T01:43:30.416Z,9.98
2019-05-22T01:46:03.313Z,13.15
2019-05-22T01:48:39.245Z,8.88
2019-05-22T01:51:11.931Z,8.35
2019-05-22T01:53:43.897Z,10.47
2019-05-22T01:56:16.929Z,10.60
2019-05-22T01:58:49.886Z,10.90
2019-05-22T02:01:24.473Z,11.83
2019-05-22T02:03:56.924Z,9.18
2019-05-22T02:06:28.509Z,10.47
2019-05-22T02:09:24.003Z,14.23
2019-05-22T02:12:08.032Z,10.63
2019-05-22T02:14:43.821Z,11.20
2019-05-22T02:17:15.737Z,8.50
2019-05-22T02:19:48.374Z,9.43
2019-05-22T02:22:20.064Z,12.67
2019-05-22T02:24:52.051Z,8.27
2019-05-22T02:27:24.202Z,8.13
2019-05-22T02:29:56.160Z,10.80
2019-05-22T02:32:29.355Z,10.08
2019-05-22T02:35:01.902Z,10.37
2019-05-22T02:37:34.735Z,8.73
2019-05-22T02:40:09.194Z,9.93
2019-05-22T02:42:40.786Z,10.94
2019-05-22T02:45:13.303Z,10.17
2019-05-22T02:47:45.558Z,10.05
2019-05-22T02:50:18.315Z,9.58
2019-05-22T02:52:50.271Z,11.43
2019-05-22T02:55:21.913Z,11.93
2019-05-22T02:57:53.507Z,10.43
2019-05-22T03:00:26.962Z,9.10
2019-05-22T03:02:58.604Z,11.10
2019-05-22T03:05:31.302Z,9.76
2019-05-22T03:08:02.481Z,12.57
2019-05-22T03:10:34.931Z,7.47
2019-05-22T03:13:08.623Z,9.97
2019-05-22T03:15:41.113Z,10.44
2019-05-22T03:18:14.054Z,10.23
2019-05-22T03:20:45.271Z,10.58
2019-05-22T03:23:37.885Z,9.63
2019-05-22T03:26:10.601Z,9.33
2019-05-22T03:28:42.995Z,11.50
2019-05-22T03:31:16.000Z,9.70
2019-05-22T03:33:47.413Z,10.20
2019-05-22T03:36:21.206Z,12.13
2019-05-22T03:38:52.989Z,12.43
2019-05-22T03:41:25.036Z,10.60
2019-05-22T03:43:58.456Z,14.13
2019-05-22T03:46:43.850Z,11.83
2019-05-22T03:49:30.079Z,10.15
2019-05-22T03:51:53.625Z,8.40
2019-05-22T03:54:26.434Z,9.40
2019-05-22T03:56:57.844Z,10.10
2019-05-22T03:59:28.913Z,10.37
2019-05-22T04:02:02.336Z,9.50
2019-05-22T04:04:39.411Z,11.43
2019-05-22T04:07:23.761Z,13.53
2019-05-22T04:09:55.188Z,10.18
2019-05-22T04:12:27.447Z,9.93
2019-05-22T04:14:58.888Z,8.10
2019-05-22T04:17:31.497Z,10.15
2019-05-22T04:20:03.854Z,9.40
2019-05-22T04:22:35.081Z,12.20
2019-05-22T04:25:08.236Z,9.87
2019-05-22T04:27:41.489Z,9.40
2019-05-22T04:30:14.466Z,11.57
2019-05-22T04:32:46.391Z,11.40
2019-05-22T04:35:20.563Z,11.20
2019-05-22T04:37:52.780Z,10.50
2019-05-22T04:40:56.830Z,12.93
2019-05-22T04:43:32.633Z,10.27
2019-05-22T04:46:06.400Z,12.03
2019-05-22T04:48:38.549Z,9.73
2019-05-22T04:51:31.130Z,10.80
2019-05-22T04:54:02.360Z,10.73
2019-05-22T04:56:33.622Z,11.90
2019-05-22T04:59:05.436Z,13.10
2019-05-22T05:01:37.451Z,11.12
2019-05-22T05:04:08.782Z,10.13
2019-05-22T05:06:41.411Z,8.57
2019-05-22T05:09:14.843Z,8.73
2019-05-22T05:11:46.406Z,9.20
2019-05-22T05:14:17.784Z,10.47
2019-05-22T05:16:49.167Z,12.90
2019-05-22T05:19:20.448Z,10.60
2019-05-22T05:21:51.836Z,13.40
2019-05-22T05:24:23.253Z,10.07
2019-05-22T05:26:55.575Z,11.30
2019-05-22T05:29:31.105Z,10.20
2019-05-22T05:32:02.954Z,10.32
2019-05-22T05:34:48.645Z,8.97
2019-05-22T05:37:23.038Z,12.33
2019-05-22T05:40:39.317Z,9.58
2019-05-22T05:43:14.343Z,10.00
2019-05-22T05:45:48.762Z,12.82
2019-05-22T05:48:23.450Z,10.70
2019-05-22T05:51:27.422Z,11.35
2019-05-22T05:54:03.009Z,10.43
2019-05-22T05:56:35.707Z,14.13
2019-05-22T05:59:09.296Z,11.50
2019-05-22T06:01:44.882Z,12.76
2019-05-22T06:04:38.140Z,8.88
2019-05-22T06:07:22.197Z,9.83
2019-05-22T06:10:53.836Z,9.75
2019-05-22T06:13:25.314Z,9.53
2019-05-22T06:17:04.532Z,9.27
2019-05-22T06:19:37.869Z,10.50
2019-05-22T06:22:10.204Z,9.67
2019-05-22T06:25:04.295Z,8.98
2019-05-22T06:27:44.455Z,12.63
2019-05-22T06:30:19.274Z,10.43
2019-05-22T06:33:39.759Z,8.47
2019-05-22T06:36:16.600Z,8.78
2019-05-22T06:39:07.703Z,9.13
2019-05-22T06:41:40.987Z,9.45
2019-05-22T06:44:46.375Z,12.20
2019-05-22T06:47:25.902Z,10.60
2019-05-22T06:49:58.525Z,14.70
2019-05-22T06:52:30.106Z,9.23
2019-05-22T06:55:02.118Z,9.73
2019-05-22T06:57:34.464Z,6.87
2019-05-22T07:00:16.770Z,8.77
2019-05-22T07:02:48.005Z,9.83
2019-05-22T07:05:19.584Z,11.93
2019-05-22T07:07:51.137Z,10.80
2019-05-22T07:10:23.366Z,9.27
2019-05-22T07:12:54.782Z,14.15
2019-05-22T07:15:39.472Z,8.77
2019-05-22T07:18:13.672Z,12.33
2019-05-22T07:20:46.855Z,12.63
2019-05-22T07:23:22.868Z,9.87
2019-05-22T07:25:54.823Z,12.77
2019-05-22T07:28:27.874Z,9.35
2019-05-22T07:30:59.359Z,10.00
2019-05-22T07:33:31.323Z,9.40
2019-05-22T07:36:09.947Z,10.03
2019-05-22T07:38:37.251Z,9.90
2019-05-22T07:41:09.742Z,12.10
2019-05-22T07:43:42.266Z,9.68
2019-05-22T07:46:13.559Z,10.58
2019-05-22T07:48:44.642Z,10.72
2019-05-22T07:51:16.237Z,10.93
2019-05-22T07:53:47.491Z,9.83
2019-05-22T07:56:18.657Z,9.83
2019-05-22T07:58:50.035Z,10.50
2019-05-22T08:01:22.511Z,9.63
2019-05-22T08:03:55.128Z,9.60
2019-05-22T08:06:26.810Z,11.13
2019-05-22T08:09:00.064Z,9.17
2019-05-22T08:11:31.994Z,9.23
2019-05-22T08:14:03.365Z,9.70
2019-05-22T08:16:35.443Z,10.97
2019-05-22T08:19:06.531Z,9.05
2019-05-22T08:21:38.015Z,8.28
2019-05-22T08:24:10.407Z,8.50
2019-05-22T08:26:53.977Z,7.20
2019-05-22T08:29:17.142Z,8.77
2019-05-22T08:31:48.599Z,9.47
2019-05-22T08:34:20.020Z,8.47
2019-05-22T08:36:51.347Z,6.87
2019-05-22T08:39:23.053Z,6.30
2019-05-22T08:41:54.733Z,4.77
2019-05-22T08:44:26.545Z,6.87
2019-05-22T08:46:57.988Z,6.83
2019-05-22T08:49:29.323Z,7.13
2019-05-22T08:52:00.885Z,7.07
2019-05-22T08:54:33.655Z,7.30
2019-05-22T08:57:06.689Z,6.17
2019-05-22T08:59:37.677Z,8.90
2019-05-22T09:02:09.296Z,6.67
2019-05-22T09:04:41.535Z,5.87
2019-05-22T09:07:12.960Z,6.40
2019-05-22T09:09:44.133Z,6.10
2019-05-22T09:12:16.450Z,7.03
2019-05-22T09:14:47.820Z,6.07
2019-05-22T09:17:21.237Z,4.80
2019-05-22T09:19:52.865Z,7.30
2019-05-22T09:22:39.630Z,5.57
2019-05-22T09:24:56.776Z,4.40
2019-05-22T09:27:28.883Z,6.37
2019-05-22T09:29:59.959Z,7.73
2019-05-22T09:32:32.290Z,4.40
2019-05-22T09:35:03.869Z,6.07
2019-05-22T09:37:34.990Z,6.43
2019-05-22T09:40:06.773Z,5.23
2019-05-22T09:42:38.140Z,7.28
2019-05-22T09:45:10.120Z,6.50
2019-05-22T09:47:42.096Z,5.10
2019-05-22T09:50:14.865Z,4.77
2019-05-22T09:52:57.040Z,7.00
2019-05-22T09:55:20.856Z,4.67
2019-05-22T09:57:52.379Z,6.33
2019-05-22T10:00:23.723Z,4.90
2019-05-22T10:02:54.849Z,4.37
2019-05-22T10:05:26.163Z,6.90
2019-05-22T10:08:01.533Z,4.97
2019-05-22T10:10:33.111Z,4.43
2019-05-22T10:13:04.755Z,4.97
2019-05-22T10:15:36.244Z,3.80
2019-05-22T10:18:07.764Z,5.70
2019-05-22T10:20:39.530Z,4.67
2019-05-22T10:23:16.021Z,4.97
2019-05-22T10:25:44.814Z,4.90
2019-05-22T10:28:16.286Z,7.22
2019-05-22T10:30:47.728Z,6.73
2019-05-22T10:33:19.662Z,5.77
2019-05-22T10:35:51.406Z,5.53
2019-05-22T10:38:21.540Z,4.63
2019-05-22T10:40:52.574Z,5.97
2019-05-22T10:43:23.765Z,4.80
2019-05-22T10:45:54.839Z,4.35
2019-05-22T10:48:26.145Z,4.42
2019-05-22T10:50:57.278Z,4.30
2019-05-22T10:53:33.569Z,2.80
2019-05-22T10:56:01.442Z,4.03
2019-05-22T10:58:32.681Z,5.07
2019-05-22T11:01:03.947Z,3.33
2019-05-22T11:03:35.589Z,5.27
2019-05-22T11:06:08.023Z,4.23
2019-05-22T11:08:41.970Z,4.20
2019-05-22T11:11:13.575Z,4.25
2019-05-22T11:13:59.795Z,3.98
2019-05-22T11:16:18.164Z,4.40
2019-05-22T11:18:50.061Z,3.90
2019-05-22T11:21:21.582Z,3.20
2019-05-22T11:23:53.477Z,2.80
2019-05-22T11:26:24.592Z,4.07
2019-05-22T11:28:55.977Z,4.67
2019-05-22T11:31:27.599Z,3.30
2019-05-22T11:33:58.817Z,3.60
2019-05-22T11:36:30.057Z,3.20
2019-05-22T11:39:01.307Z,2.67
2019-05-22T11:41:33.518Z,3.37
2019-05-22T11:44:05.284Z,3.60
2019-05-22T11:46:36.648Z,3.30
2019-05-22T11:49:08.165Z,4.00
2019-05-22T11:51:39.706Z,5.05
2019-05-22T11:54:12.046Z,4.40
2019-05-22T11:56:43.214Z,3.63
2019-05-22T11:59:14.590Z,2.87
2019-05-22T12:01:46.642Z,3.05
2019-05-22T12:04:17.749Z,1.92
2019-05-22T12:06:53.588Z,2.00
2019-05-22T12:09:23.236Z,3.70
2019-05-22T12:11:54.489Z,2.43
2019-05-22T12:14:25.586Z,3.57
2019-05-22T12:16:57.571Z,2.53
2019-05-22T12:19:28.772Z,3.60
2019-05-22T12:22:00.077Z,5.27
2019-05-22T12:24:36.810Z,2.37
2019-05-22T12:27:07.647Z,2.47
2019-05-22T12:29:39.253Z,3.50
2019-05-22T12:32:10.543Z,5.42
2019-05-22T12:34:42.980Z,3.36
2019-05-22T12:37:14.227Z,4.73
2019-05-22T12:39:45.931Z,3.10
2019-05-22T12:42:17.972Z,4.65
2019-05-22T12:44:49.688Z,3.27
2019-05-22T12:47:23.055Z,2.83
2019-05-22T12:49:54.765Z,2.98
2019-05-22T12:52:25.983Z,4.77
2019-05-22T12:54:59.106Z,2.50
2019-05-22T12:57:30.820Z,2.07
2019-05-22T13:00:03.083Z,2.67
2019-05-22T13:02:36.956Z,3.33
2019-05-22T13:05:13.998Z,3.57
2019-05-22T13:07:42.601Z,4.50
2019-05-22T13:10:15.575Z,4.27
2019-05-22T13:12:46.891Z,2.52
2019-05-22T13:15:19.179Z,2.23
2019-05-22T13:17:51.255Z,1.65
2019-05-22T13:20:41.277Z,1.63
2019-05-22T13:23:01.033Z,2.03
2019-05-22T13:25:37.082Z,1.80
2019-05-22T13:28:11.553Z,1.70
2019-05-22T13:30:44.846Z,2.60
2019-05-22T13:33:19.383Z,4.13
2019-05-22T13:35:51.583Z,2.73
2019-05-22T13:38:23.650Z,1.57
2019-05-22T13:40:56.329Z,1.83
2019-05-22T13:43:28.667Z,2.10
2019-05-22T13:45:59.996Z,1.30
2019-05-22T13:48:32.402Z,1.37
2019-05-22T13:51:05.265Z,1.53
2019-05-22T13:53:36.866Z,2.43
2019-05-22T13:56:08.728Z,2.13
2019-05-22T13:58:39.975Z,1.80
2019-05-22T14:01:11.933Z,1.40
2019-05-22T14:03:43.072Z,1.45
2019-05-22T14:06:14.466Z,1.20
2019-05-22T14:08:45.534Z,2.30
2019-05-22T14:11:17.025Z,0.80
2019-05-22T14:13:49.459Z,1.63
2019-05-22T14:16:21.653Z,1.27
2019-05-22T14:18:52.841Z,2.37
2019-05-22T14:21:24.014Z,1.00
2019-05-22T14:23:55.085Z,1.67
2019-05-22T14:26:29.776Z,1.17
2019-05-22T14:28:59.622Z,1.35
2019-05-22T14:31:30.854Z,2.02
2019-05-22T14:34:02.698Z,1.70
2019-05-22T14:36:34.102Z,1.47
2019-05-22T14:39:08.297Z,1.10
2019-05-22T14:41:39.398Z,0.72
2019-05-22T14:44:10.897Z,3.23
2019-05-22T14:46:43.006Z,1.04
2019-05-22T14:49:14.103Z,2.17
2019-05-22T14:51:45.865Z,4.45
2019-05-22T14:54:19.502Z,2.70
2019-05-22T14:56:50.886Z,3.17
2019-05-22T14:59:22.237Z,3.07
2019-05-22T15:01:53.642Z,2.07
2019-05-22T15:04:25.457Z,2.47
2019-05-22T15:06:56.709Z,1.90
2019-05-22T15:09:27.880Z,3.13
2019-05-22T15:11:58.992Z,2.47
2019-05-22T15:14:30.359Z,2.58
2019-05-22T15:17:01.529Z,2.10
2019-05-22T15:19:32.981Z,2.10
2019-05-22T15:22:05.384Z,1.47
2019-05-22T15:24:36.729Z,3.77
2019-05-22T15:27:09.495Z,2.35
2019-05-22T15:29:40.491Z,3.27
2019-05-22T15:32:14.049Z,3.37
2019-05-22T15:34:46.593Z,2.90
2019-05-22T15:37:20.795Z,3.10
2019-05-22T15:39:52.869Z,1.95
2019-05-22T15:42:45.001Z,4.83
2019-05-22T15:45:19.854Z,2.97
2019-05-22T15:47:57.107Z,3.58
2019-05-22T15:50:31.968Z,4.40
2019-05-22T15:53:11.636Z,3.67
2019-05-22T15:55:44.146Z,3.25
2019-05-22T15:58:18.089Z,1.90
2019-05-22T16:00:50.431Z,2.47
2019-05-22T16:03:24.441Z,4.33
2019-05-22T16:05:56.622Z,2.97
2019-05-22T16:08:29.330Z,3.85
2019-05-22T16:11:02.923Z,3.57
2019-05-22T16:13:34.872Z,2.05
2019-05-22T16:16:09.753Z,3.55
2019-05-22T16:18:43.851Z,4.47
2019-05-22T16:21:16.953Z,4.40
2019-05-22T16:23:48.514Z,3.80
2019-05-22T16:26:19.846Z,3.93
2019-05-22T16:28:51.251Z,2.80
2019-05-22T16:31:23.764Z,2.87
2019-05-22T16:33:55.447Z,2.67
2019-05-22T16:36:26.961Z,1.80
2019-05-22T16:38:59.753Z,2.15
2019-05-22T16:41:32.435Z,2.80
2019-05-22T16:44:04.659Z,2.63
2019-05-22T16:46:35.836Z,2.63
2019-05-22T16:49:07.652Z,1.97
2019-05-22T16:51:39.177Z,3.00
2019-05-22T16:54:11.376Z,1.47
2019-05-22T16:56:43.265Z,1.50
2019-05-22T16:59:15.078Z,2.30
2019-05-22T17:01:58.775Z,2.37
2019-05-22T17:04:20.522Z,2.12
2019-05-22T17:06:51.997Z,2.55
2019-05-22T17:09:23.331Z,2.42
2019-05-22T17:11:55.716Z,1.27
2019-05-22T17:14:27.802Z,2.90
2019-05-22T17:16:58.870Z,2.00
2019-05-22T17:19:30.554Z,3.52
2019-05-22T17:22:02.198Z,2.47
2019-05-22T17:24:34.336Z,2.10
2019-05-22T17:27:07.022Z,1.30
2019-05-22T17:29:38.238Z,2.80
2019-05-22T17:32:11.635Z,2.33
2019-05-22T17:34:43.739Z,1.80
2019-05-22T17:37:18.235Z,1.63
2019-05-22T17:39:50.899Z,2.97
2019-05-22T17:42:24.943Z,1.33
2019-05-22T17:44:56.351Z,2.22
2019-05-22T17:47:27.812Z,1.83
2019-05-22T17:50:01.835Z,2.35
2019-05-22T17:52:34.063Z,1.98
2019-05-22T17:55:07.017Z,3.02
2019-05-22T17:57:39.636Z,2.77
2019-05-22T18:00:18.622Z,3.07
2019-05-22T18:02:49.782Z,3.57
2019-05-22T18:05:22.035Z,4.30
2019-05-22T18:07:53.222Z,3.77
2019-05-22T18:10:24.833Z,1.97
2019-05-22T18:12:56.052Z,3.05
2019-05-22T18:15:27.307Z,2.23
2019-05-22T18:17:59.368Z,5.00
2019-05-22T18:20:42.297Z,2.43
2019-05-22T18:23:03.875Z,5.13
2019-05-22T18:25:35.389Z,2.70
2019-05-22T18:28:08.531Z,3.00
2019-05-22T18:30:41.666Z,2.90
2019-05-22T18:33:14.457Z,6.50
2019-05-22T18:35:45.921Z,3.87
2019-05-22T18:38:17.157Z,2.10
2019-05-22T18:40:48.460Z,2.17
2019-05-22T18:43:22.881Z,3.43
2019-05-22T18:45:53.037Z,3.23
2019-05-22T18:48:24.208Z,6.17
2019-05-22T18:50:55.382Z,2.30
2019-05-22T18:53:27.132Z,4.35
2019-05-22T18:55:58.392Z,3.77
2019-05-22T18:58:29.824Z,2.33
2019-05-22T19:01:01.126Z,2.97
2019-05-22T19:03:32.715Z,4.50
2019-05-22T19:06:05.057Z,4.67
2019-05-22T19:08:36.356Z,3.80
2019-05-22T19:11:07.960Z,3.20
2019-05-22T19:13:39.193Z,3.42
2019-05-22T19:16:11.967Z,1.95
2019-05-22T19:18:43.510Z,3.90
2019-05-22T19:21:14.654Z,4.60
2019-05-22T19:23:46.055Z,3.37
2019-05-22T19:26:17.162Z,3.93
2019-05-22T19:28:48.886Z,3.12
2019-05-22T19:31:20.065Z,3.50
2019-05-22T19:33:51.135Z,3.13
2019-05-22T19:36:22.357Z,3.50
2019-05-22T19:38:53.872Z,3.33
2019-05-22T19:41:25.317Z,3.73
2019-05-22T19:43:57.012Z,4.42
2019-05-22T19:46:28.310Z,5.20
2019-05-22T19:49:00.372Z,5.30
2019-05-22T19:51:32.826Z,2.70
2019-05-22T19:54:04.423Z,3.67
2019-05-22T19:56:36.962Z,4.87
2019-05-22T19:59:09.589Z,3.33
2019-05-22T20:01:41.021Z,6.40
2019-05-22T20:04:14.084Z,5.37
2019-05-22T20:06:45.699Z,6.08
2019-05-22T20:09:17.130Z,5.60
2019-05-22T20:11:48.730Z,5.53
2019-05-22T20:14:20.443Z,4.30
2019-05-22T20:16:51.771Z,6.00
2019-05-22T20:19:22.846Z,4.08
2019-05-22T20:21:55.008Z,7.53
2019-05-22T20:24:26.261Z,5.53
2019-05-22T20:26:57.568Z,4.23
2019-05-22T20:29:29.258Z,3.53
2019-05-22T20:32:00.386Z,4.00
2019-05-22T20:34:31.795Z,5.03
2019-05-22T20:37:03.321Z,4.13
2019-05-22T20:39:36.145Z,3.60
2019-05-22T20:42:07.671Z,4.40
2019-05-22T20:44:39.881Z,3.03
2019-05-22T20:47:13.882Z,3.37
2019-05-22T20:49:47.915Z,5.45
2019-05-22T20:52:21.649Z,4.07
2019-05-22T20:54:53.766Z,5.30
2019-05-22T20:57:26.646Z,3.37
2019-05-22T20:59:58.055Z,6.50
2019-05-22T21:02:29.983Z,6.35
2019-05-22T21:05:01.556Z,5.62
2019-05-22T21:07:36.929Z,4.67
2019-05-22T21:10:09.143Z,5.90
2019-05-22T21:12:40.958Z,5.83
2019-05-22T21:15:12.717Z,5.93
2019-05-22T21:17:45.739Z,5.45
2019-05-22T21:20:18.560Z,4.13
2019-05-22T21:22:49.884Z,4.45
2019-05-22T21:25:22.031Z,3.70
2019-05-22T21:27:53.422Z,4.70
2019-05-22T21:30:26.049Z,3.63
2019-05-22T21:32:57.584Z,3.87
2019-05-22T21:35:29.870Z,3.45
2019-05-22T21:38:02.215Z,2.93
2019-05-22T21:40:33.617Z,3.77
2019-05-22T21:43:05.841Z,3.40
2019-05-22T21:45:37.845Z,3.00
2019-05-22T21:48:09.229Z,4.07
2019-05-22T21:50:41.281Z,5.67
2019-05-22T21:53:13.733Z,3.57
2019-05-22T21:55:46.865Z,4.10
2019-05-22T21:58:19.584Z,3.33
2019-05-22T22:01:13.530Z,5.15
2019-05-22T22:03:47.130Z,4.47
2019-05-22T22:06:19.417Z,3.90
2019-05-22T22:08:50.885Z,2.97
2019-05-22T22:11:25.909Z,3.63
2019-05-22T22:13:57.032Z,4.70
2019-05-22T22:16:28.071Z,3.43
2019-05-22T22:19:00.812Z,3.67
2019-05-22T22:21:31.845Z,3.20
2019-05-22T22:24:03.021Z,3.33
2019-05-22T22:26:34.608Z,3.83
2019-05-22T22:29:06.120Z,4.83
2019-05-22T22:31:39.383Z,3.60
2019-05-22T22:34:29.315Z,3.23
2019-05-22T22:37:01.255Z,3.55
2019-05-22T22:39:34.674Z,5.70
2019-05-22T22:42:07.577Z,4.80
2019-05-22T22:44:38.727Z,4.30
2019-05-22T22:47:18.326Z,3.53
2019-05-22T22:49:49.754Z,3.77
2019-05-22T22:52:20.787Z,3.07
2019-05-22T22:54:52.545Z,4.50
2019-05-22T22:57:23.950Z,3.07
2019-05-22T22:59:55.231Z,4.23
2019-05-22T23:02:30.861Z,4.07
2019-05-22T23:05:03.189Z,5.10
2019-05-22T23:07:36.556Z,4.40
2019-05-22T23:10:11.815Z,2.37
2019-05-22T23:12:44.913Z,3.96
2019-05-22T23:15:19.046Z,5.70
2019-05-22T23:17:50.626Z,4.87
2019-05-22T23:20:19.746Z,6.17
2019-05-22T23:22:49.371Z,3.75
2019-05-22T23:25:21.224Z,3.08
2019-05-22T23:27:52.626Z,4.77
2019-05-22T23:30:23.895Z,3.63
2019-05-22T23:32:55.191Z,5.33
2019-05-22T23:35:26.529Z,3.90
2019-05-22T23:37:59.263Z,2.80
2019-05-22T23:40:35.294Z,6.33
2019-05-22T23:43:08.746Z,3.00
2019-05-22T23:45:40.315Z,3.63
2019-05-22T23:48:14.452Z,3.90
2019-05-22T23:50:47.241Z,5.03
2019-05-22T23:53:20.736Z,3.75
2019-05-22T23:55:51.894Z,4.20
2019-05-22T23:58:25.476Z,4.50
